Cedar Park, TX (78613)

1:47 PM CDT on July 25, 2016 (GMT -0500)
Red Oaks | | Change Station

Elev 948 ft 30.49 °N, 97.82 °W | Updated 26 seconds ago

Scattered Clouds
Scattered Clouds
101.3 °F
Feels Like 111 °F
N
0.0
Wind Variable Wind from SE
Gusts 3.1 mph

Today
High -- | Low -- °F
--% Chance of Precip.
Yesterday
High -- | Low -- °F
Precip. -- in
Pressure 29.98 in
Visibility 10.0 miles
Clouds Scattered Clouds 5500 ft
Heat Index 111 °F
Dew Point 72 °F
Humidity 39%
Rainfall 0.00 in
Snow Depth Not available.
6:45 AM 8:29 PM
Waning Gibbous, 63% visible
METAR KRYW 251835Z AUTO 11004KT 10SM SCT055 36/18 A2998 RMK AO2 T03630182
Pressure 29.98 in
Visibility 10.0 miles
Clouds Scattered Clouds 5500 ft
Heat Index 111 °F
Dew Point 72 °F
Humidity 39%
Rainfall 0.00 in
Snow Depth Not available.
6:45 AM 8:29 PM
Waning Gibbous, 63% visible
METAR KRYW 251835Z AUTO 11004KT 10SM SCT055 36/18 A2998 RMK AO2 T03630182

10-Day Weather Forecast

Almanac

Astronomy

Jul. 25, 2016 Rise Set
Actual Time
Civil Twilight
Nautical Twilight
Astronomical Twilight
Moon
Length of Visible Light
Length of Day
Tomorrow will be .
, % of the Moon is Illuminated

Today's Extremes

State Highs State Lows

Community

WunderPhotos

Upload Photos

1,927,370 photos uploaded!

WunderBlog® & News

Nearby

Air Quality

  Air Quality AQ Index Pollutant
Not available.

Snow Depth

Station Depth Elevation

Earthquake Activity

City Distance Mag. Time & Date
Minimum magnitude displayed is 2.5.

Coastal Water Temperatures

Place Temperature

Stations

Nearby Weather Stations

Station Location Temp. Windchill Dew Point Humidity Wind Precip. Elev Updated Type
                   

Watches & Warnings

There are currently no watches in effect.